sensor_id;sensor_type;location;lat;lon;timestamp;temperature;humidity
52899;DHT22;38763;53.096;6.062;2023-04-12T00:02:24;8.10;99.90
52899;DHT22;38763;53.096;6.062;2023-04-12T00:04:51;8.10;99.90
52899;DHT22;38763;53.096;6.062;2023-04-12T00:07:23;8.20;99.90
52899;DHT22;38763;53.096;6.062;2023-04-12T00:09:49;8.30;99.90
52899;DHT22;38763;53.096;6.062;2023-04-12T00:12:16;8.20;99.90
52899;DHT22;38763;53.096;6.062;2023-04-12T00:14:44;8.20;99.90
52899;DHT22;38763;53.096;6.062;2023-04-12T00:17:09;8.30;99.90
52899;DHT22;38763;53.096;6.062;2023-04-12T00:19:36;8.30;99.90
52899;DHT22;38763;53.096;6.062;2023-04-12T00:22:09;8.30;99.90
52899;DHT22;38763;53.096;6.062;2023-04-12T00:24:37;8.30;99.90
52899;DHT22;38763;53.096;6.062;2023-04-12T00:27:04;8.30;99.90
52899;DHT22;38763;53.096;6.062;2023-04-12T00:29:31;8.30;99.90
52899;DHT22;38763;53.096;6.062;2023-04-12T00:31:57;8.30;99.90
52899;DHT22;38763;53.096;6.062;2023-04-12T00:34:24;8.40;99.90
52899;DHT22;38763;53.096;6.062;2023-04-12T00:36:49;8.30;99.90
52899;DHT22;38763;53.096;6.062;2023-04-12T00:39:15;8.30;99.90
52899;DHT22;38763;53.096;6.062;2023-04-12T00:41:41;8.30;99.90
52899;DHT22;38763;53.096;6.062;2023-04-12T00:44:06;8.30;99.90
52899;DHT22;38763;53.096;6.062;2023-04-12T00:46:32;8.30;99.90
52899;DHT22;38763;53.096;6.062;2023-04-12T00:48:58;8.40;99.90
52899;DHT22;38763;53.096;6.062;2023-04-12T00:51:24;8.40;99.90
52899;DHT22;38763;53.096;6.062;2023-04-12T00:53:55;8.30;99.90
52899;DHT22;38763;53.096;6.062;2023-04-12T00:56:23;8.30;99.90
52899;DHT22;38763;53.096;6.062;2023-04-12T00:58:52;8.30;99.90
52899;DHT22;38763;53.096;6.062;2023-04-12T01:01:17;8.30;99.90
52899;DHT22;38763;53.096;6.062;2023-04-12T01:03:44;8.30;99.90
52899;DHT22;38763;53.096;6.062;2023-04-12T01:15:06;8.30;99.90
52899;DHT22;38763;53.096;6.062;2023-04-12T01:17:37;8.30;99.90
52899;DHT22;38763;53.096;6.062;2023-04-12T01:20:14;8.30;99.90
52899;DHT22;38763;53.096;6.062;2023-04-12T01:28:32;8.20;99.90
52899;DHT22;38763;53.096;6.062;2023-04-12T01:31:00;8.20;99.90
52899;DHT22;38763;53.096;6.062;2023-04-12T01:33:27;8.20;99.90
52899;DHT22;38763;53.096;6.062;2023-04-12T01:35:58;8.30;99.90
52899;DHT22;38763;53.096;6.062;2023-04-12T01:38:23;8.20;99.90
52899;DHT22;38763;53.096;6.062;2023-04-12T01:40:49;8.20;99.90
52899;DHT22;38763;53.096;6.062;2023-04-12T01:43:15;8.20;99.90
52899;DHT22;38763;53.096;6.062;2023-04-12T01:45:41;8.20;99.90
52899;DHT22;38763;53.096;6.062;2023-04-12T01:48:08;8.30;99.90
52899;DHT22;38763;53.096;6.062;2023-04-12T01:56:16;8.20;99.90
52899;DHT22;38763;53.096;6.062;2023-04-12T01:58:43;8.30;99.90
52899;DHT22;38763;53.096;6.062;2023-04-12T02:01:12;8.30;99.90
52899;DHT22;38763;53.096;6.062;2023-04-12T02:03:41;8.20;99.90
52899;DHT22;38763;53.096;6.062;2023-04-12T02:06:07;8.20;99.90
52899;DHT22;38763;53.096;6.062;2023-04-12T02:08:34;8.20;99.90
52899;DHT22;38763;53.096;6.062;2023-04-12T02:10:59;8.20;99.90
52899;DHT22;38763;53.096;6.062;2023-04-12T02:13:25;8.30;99.90
52899;DHT22;38763;53.096;6.062;2023-04-12T02:15:52;8.20;99.90
52899;DHT22;38763;53.096;6.062;2023-04-12T02:18:19;8.30;99.90
52899;DHT22;38763;53.096;6.062;2023-04-12T02:20:45;8.20;99.90
52899;DHT22;38763;53.096;6.062;2023-04-12T02:23:11;8.20;99.90
52899;DHT22;38763;53.096;6.062;2023-04-12T02:25:37;8.10;99.90
52899;DHT22;38763;53.096;6.062;2023-04-12T02:28:05;8.10;99.90
52899;DHT22;38763;53.096;6.062;2023-04-12T02:30:31;8.20;99.90
52899;DHT22;38763;53.096;6.062;2023-04-12T02:32:57;8.20;99.90
52899;DHT22;38763;53.096;6.062;2023-04-12T02:35:23;8.20;99.90
52899;DHT22;38763;53.096;6.062;2023-04-12T02:37:49;8.20;99.90
52899;DHT22;38763;53.096;6.062;2023-04-12T02:40:15;8.20;99.90
52899;DHT22;38763;53.096;6.062;2023-04-12T02:42:44;8.20;99.90
52899;DHT22;38763;53.096;6.062;2023-04-12T02:45:10;8.20;99.90
52899;DHT22;38763;53.096;6.062;2023-04-12T02:47:36;8.10;99.90
52899;DHT22;38763;53.096;6.062;2023-04-12T02:50:03;8.10;99.90
52899;DHT22;38763;53.096;6.062;2023-04-12T02:52:29;8.30;99.90
52899;DHT22;38763;53.096;6.062;2023-04-12T02:54:56;8.30;99.90
52899;DHT22;38763;53.096;6.062;2023-04-12T02:57:22;8.30;99.90
52899;DHT22;38763;53.096;6.062;2023-04-12T02:59:52;8.20;99.90
52899;DHT22;38763;53.096;6.062;2023-04-12T03:02:22;8.30;99.90
52899;DHT22;38763;53.096;6.062;2023-04-12T03:04:48;8.40;99.90
52899;DHT22;38763;53.096;6.062;2023-04-12T03:07:19;8.30;99.90
52899;DHT22;38763;53.096;6.062;2023-04-12T03:09:46;8.20;99.90
52899;DHT22;38763;53.096;6.062;2023-04-12T03:12:13;8.20;99.90
52899;DHT22;38763;53.096;6.062;2023-04-12T03:14:39;8.20;99.90
52899;DHT22;38763;53.096;6.062;2023-04-12T03:17:04;8.20;99.90
52899;DHT22;38763;53.096;6.062;2023-04-12T03:19:30;8.20;99.90
52899;DHT22;38763;53.096;6.062;2023-04-12T03:21:57;8.30;99.90
52899;DHT22;38763;53.096;6.062;2023-04-12T03:24:24;8.20;99.90
52899;DHT22;38763;53.096;6.062;2023-04-12T03:26:50;8.20;99.90
52899;DHT22;38763;53.096;6.062;2023-04-12T03:29:16;8.20;99.90
52899;DHT22;38763;53.096;6.062;2023-04-12T03:31:42;8.20;99.90
52899;DHT22;38763;53.096;6.062;2023-04-12T03:34:08;8.20;99.90
52899;DHT22;38763;53.096;6.062;2023-04-12T03:36:34;8.20;99.90
52899;DHT22;38763;53.096;6.062;2023-04-12T03:38:59;8.30;99.90
52899;DHT22;38763;53.096;6.062;2023-04-12T03:41:27;8.20;99.90
52899;DHT22;38763;53.096;6.062;2023-04-12T03:43:52;8.20;99.90
52899;DHT22;38763;53.096;6.062;2023-04-12T03:46:18;8.20;99.90
52899;DHT22;38763;53.096;6.062;2023-04-12T03:48:43;8.10;99.90
52899;DHT22;38763;53.096;6.062;2023-04-12T03:51:09;8.10;99.90
52899;DHT22;38763;53.096;6.062;2023-04-12T03:53:40;8.10;99.90
52899;DHT22;38763;53.096;6.062;2023-04-12T03:56:06;8.00;99.90
52899;DHT22;38763;53.096;6.062;2023-04-12T03:58:32;8.10;99.90
52899;DHT22;38763;53.096;6.062;2023-04-12T04:01:03;8.00;99.90
52899;DHT22;38763;53.096;6.062;2023-04-12T04:03:31;8.00;99.90
52899;DHT22;38763;53.096;6.062;2023-04-12T04:06:00;8.00;99.90
52899;DHT22;38763;53.096;6.062;2023-04-12T04:08:27;7.90;99.90
52899;DHT22;38763;53.096;6.062;2023-04-12T04:10:53;7.90;99.90
52899;DHT22;38763;53.096;6.062;2023-04-12T04:13:19;7.90;99.90
52899;DHT22;38763;53.096;6.062;2023-04-12T04:15:45;7.90;99.90
52899;DHT22;38763;53.096;6.062;2023-04-12T04:18:10;7.90;99.90
52899;DHT22;38763;53.096;6.062;2023-04-12T04:20:36;7.90;99.90
52899;DHT22;38763;53.096;6.062;2023-04-12T04:23:02;7.90;99.90
52899;DHT22;38763;53.096;6.062;2023-04-12T04:25:27;7.90;99.90
52899;DHT22;38763;53.096;6.062;2023-04-12T04:27:57;7.80;99.90
52899;DHT22;38763;53.096;6.062;2023-04-12T04:30:24;7.90;99.90
52899;DHT22;38763;53.096;6.062;2023-04-12T04:32:51;7.90;99.90
52899;DHT22;38763;53.096;6.062;2023-04-12T04:35:16;7.90;99.90
52899;DHT22;38763;53.096;6.062;2023-04-12T04:37:42;7.80;99.90
52899;DHT22;38763;53.096;6.062;2023-04-12T04:40:08;7.80;99.90
52899;DHT22;38763;53.096;6.062;2023-04-12T04:42:36;7.80;99.90
52899;DHT22;38763;53.096;6.062;2023-04-12T04:45:03;7.70;99.90
52899;DHT22;38763;53.096;6.062;2023-04-12T04:47:29;7.70;99.90
52899;DHT22;38763;53.096;6.062;2023-04-12T04:49:56;7.80;99.90
52899;DHT22;38763;53.096;6.062;2023-04-12T04:52:22;7.70;99.90
52899;DHT22;38763;53.096;6.062;2023-04-12T04:54:48;7.70;99.90
52899;DHT22;38763;53.096;6.062;2023-04-12T04:57:14;7.60;99.90
52899;DHT22;38763;53.096;6.062;2023-04-12T04:59:40;7.70;99.90
52899;DHT22;38763;53.096;6.062;2023-04-12T05:02:05;7.60;99.90
52899;DHT22;38763;53.096;6.062;2023-04-12T05:04:31;7.70;99.90
52899;DHT22;38763;53.096;6.062;2023-04-12T05:06:57;7.60;99.90
52899;DHT22;38763;53.096;6.062;2023-04-12T05:09:22;7.60;99.90
52899;DHT22;38763;53.096;6.062;2023-04-12T05:11:48;7.60;99.90
52899;DHT22;38763;53.096;6.062;2023-04-12T05:14:14;7.60;99.90
52899;DHT22;38763;53.096;6.062;2023-04-12T05:16:39;7.50;99.90
52899;DHT22;38763;53.096;6.062;2023-04-12T05:19:05;7.50;99.90
52899;DHT22;38763;53.096;6.062;2023-04-12T05:21:32;7.60;99.90
52899;DHT22;38763;53.096;6.062;2023-04-12T05:23:58;7.60;99.90
52899;DHT22;38763;53.096;6.062;2023-04-12T05:26:23;7.60;99.90
52899;DHT22;38763;53.096;6.062;2023-04-12T05:28:50;7.60;99.90
52899;DHT22;38763;53.096;6.062;2023-04-12T05:31:16;7.60;99.90
52899;DHT22;38763;53.096;6.062;2023-04-12T05:33:42;7.60;99.90
52899;DHT22;38763;53.096;6.062;2023-04-12T05:36:09;7.50;99.90
52899;DHT22;38763;53.096;6.062;2023-04-12T05:38:35;7.50;99.90
52899;DHT22;38763;53.096;6.062;2023-04-12T05:41:01;7.50;99.90
52899;DHT22;38763;53.096;6.062;2023-04-12T05:43:30;7.50;99.90
52899;DHT22;38763;53.096;6.062;2023-04-12T05:45:56;7.50;99.90
52899;DHT22;38763;53.096;6.062;2023-04-12T05:48:21;7.50;99.90
52899;DHT22;38763;53.096;6.062;2023-04-12T05:50:53;7.50;99.90
52899;DHT22;38763;53.096;6.062;2023-04-12T05:53:20;7.50;99.90
52899;DHT22;38763;53.096;6.062;2023-04-12T05:55:46;7.60;99.90
52899;DHT22;38763;53.096;6.062;2023-04-12T05:58:12;7.60;99.90
52899;DHT22;38763;53.096;6.062;2023-04-12T06:00:41;7.60;99.90
52899;DHT22;38763;53.096;6.062;2023-04-12T06:03:10;7.50;99.90
52899;DHT22;38763;53.096;6.062;2023-04-12T06:05:36;7.60;99.90
52899;DHT22;38763;53.096;6.062;2023-04-12T06:08:02;7.60;99.90
52899;DHT22;38763;53.096;6.062;2023-04-12T06:10:29;7.50;99.90
52899;DHT22;38763;53.096;6.062;2023-04-12T06:12:55;7.60;99.90
52899;DHT22;38763;53.096;6.062;2023-04-12T06:15:21;7.60;99.90
52899;DHT22;38763;53.096;6.062;2023-04-12T06:17:46;7.40;99.90
52899;DHT22;38763;53.096;6.062;2023-04-12T06:20:12;7.60;99.90
52899;DHT22;38763;53.096;6.062;2023-04-12T06:22:38;7.40;99.90
52899;DHT22;38763;53.096;6.062;2023-04-12T06:25:04;7.40;99.90
52899;DHT22;38763;53.096;6.062;2023-04-12T06:27:30;7.50;99.90
52899;DHT22;38763;53.096;6.062;2023-04-12T06:29:56;7.60;99.90
52899;DHT22;38763;53.096;6.062;2023-04-12T06:32:22;7.60;99.90
52899;DHT22;38763;53.096;6.062;2023-04-12T06:34:48;7.60;99.90
52899;DHT22;38763;53.096;6.062;2023-04-12T06:37:14;7.60;99.90
52899;DHT22;38763;53.096;6.062;2023-04-12T06:39:40;7.50;99.90
52899;DHT22;38763;53.096;6.062;2023-04-12T06:42:05;7.70;99.90
52899;DHT22;38763;53.096;6.062;2023-04-12T06:44:31;7.70;99.90
52899;DHT22;38763;53.096;6.062;2023-04-12T06:46:58;7.70;99.90
52899;DHT22;38763;53.096;6.062;2023-04-12T06:49:24;7.70;99.90
52899;DHT22;38763;53.096;6.062;2023-04-12T06:51:50;7.60;99.90
52899;DHT22;38763;53.096;6.062;2023-04-12T06:54:16;7.60;99.90
52899;DHT22;38763;53.096;6.062;2023-04-12T06:56:42;7.70;99.90
52899;DHT22;38763;53.096;6.062;2023-04-12T06:59:07;7.60;99.90
52899;DHT22;38763;53.096;6.062;2023-04-12T07:01:33;7.60;99.90
52899;DHT22;38763;53.096;6.062;2023-04-12T07:03:59;7.60;99.90
52899;DHT22;38763;53.096;6.062;2023-04-12T07:06:26;7.60;99.90
52899;DHT22;38763;53.096;6.062;2023-04-12T07:08:52;7.80;99.90
52899;DHT22;38763;53.096;6.062;2023-04-12T07:11:18;7.80;99.90
52899;DHT22;38763;53.096;6.062;2023-04-12T07:13:44;7.70;99.90
52899;DHT22;38763;53.096;6.062;2023-04-12T07:16:09;7.80;99.90
52899;DHT22;38763;53.096;6.062;2023-04-12T07:18:35;7.70;99.90
52899;DHT22;38763;53.096;6.062;2023-04-12T07:21:01;7.80;99.90
52899;DHT22;38763;53.096;6.062;2023-04-12T07:23:26;7.70;99.90
52899;DHT22;38763;53.096;6.062;2023-04-12T07:25:52;7.70;99.90
52899;DHT22;38763;53.096;6.062;2023-04-12T07:28:18;7.80;99.90
52899;DHT22;38763;53.096;6.062;2023-04-12T07:30:45;7.70;99.90
52899;DHT22;38763;53.096;6.062;2023-04-12T07:33:11;7.80;99.90
52899;DHT22;38763;53.096;6.062;2023-04-12T07:35:36;7.70;99.90
52899;DHT22;38763;53.096;6.062;2023-04-12T07:38:02;7.70;99.90
52899;DHT22;38763;53.096;6.062;2023-04-12T07:40:28;7.80;99.90
52899;DHT22;38763;53.096;6.062;2023-04-12T07:42:54;7.80;99.90
52899;DHT22;38763;53.096;6.062;2023-04-12T07:45:20;7.90;99.90
52899;DHT22;38763;53.096;6.062;2023-04-12T07:47:45;8.00;99.90
52899;DHT22;38763;53.096;6.062;2023-04-12T07:50:12;8.00;99.90
52899;DHT22;38763;53.096;6.062;2023-04-12T07:52:38;7.90;99.90
52899;DHT22;38763;53.096;6.062;2023-04-12T07:55:04;8.00;99.90
52899;DHT22;38763;53.096;6.062;2023-04-12T07:57:29;8.00;99.90
52899;DHT22;38763;53.096;6.062;2023-04-12T07:59:56;7.90;99.90
52899;DHT22;38763;53.096;6.062;2023-04-12T08:02:22;8.00;99.90
52899;DHT22;38763;53.096;6.062;2023-04-12T08:04:54;8.00;99.90
52899;DHT22;38763;53.096;6.062;2023-04-12T08:07:20;8.10;99.90
52899;DHT22;38763;53.096;6.062;2023-04-12T08:09:49;8.00;99.90
52899;DHT22;38763;53.096;6.062;2023-04-12T08:12:15;8.00;99.90
52899;DHT22;38763;53.096;6.062;2023-04-12T08:14:41;8.00;99.90
52899;DHT22;38763;53.096;6.062;2023-04-12T08:17:07;8.10;99.90
52899;DHT22;38763;53.096;6.062;2023-04-12T08:19:33;8.00;99.90
52899;DHT22;38763;53.096;6.062;2023-04-12T08:21:59;8.00;99.90
52899;DHT22;38763;53.096;6.062;2023-04-12T08:24:26;8.00;99.90
52899;DHT22;38763;53.096;6.062;2023-04-12T08:26:51;8.10;99.90
52899;DHT22;38763;53.096;6.062;2023-04-12T08:29:17;8.00;99.90
52899;DHT22;38763;53.096;6.062;2023-04-12T08:31:43;8.10;99.90
52899;DHT22;38763;53.096;6.062;2023-04-12T08:34:10;8.20;99.90
52899;DHT22;38763;53.096;6.062;2023-04-12T08:36:35;8.20;99.90
52899;DHT22;38763;53.096;6.062;2023-04-12T08:39:01;8.20;99.90
52899;DHT22;38763;53.096;6.062;2023-04-12T08:41:27;8.10;99.90
52899;DHT22;38763;53.096;6.062;2023-04-12T08:43:53;8.30;99.90
52899;DHT22;38763;53.096;6.062;2023-04-12T08:46:20;8.30;99.90
52899;DHT22;38763;53.096;6.062;2023-04-12T08:48:50;8.30;99.90
52899;DHT22;38763;53.096;6.062;2023-04-12T08:51:20;8.50;99.90
52899;DHT22;38763;53.096;6.062;2023-04-12T08:53:46;8.60;99.90
52899;DHT22;38763;53.096;6.062;2023-04-12T08:56:13;8.70;99.90
52899;DHT22;38763;53.096;6.062;2023-04-12T08:58:40;8.80;99.90
52899;DHT22;38763;53.096;6.062;2023-04-12T09:01:10;9.00;99.90
52899;DHT22;38763;53.096;6.062;2023-04-12T09:03:38;9.10;99.90
52899;DHT22;38763;53.096;6.062;2023-04-12T09:06:05;9.10;99.90
52899;DHT22;38763;53.096;6.062;2023-04-12T09:08:31;9.30;99.90
52899;DHT22;38763;53.096;6.062;2023-04-12T09:10:57;9.30;99.90
52899;DHT22;38763;53.096;6.062;2023-04-12T09:13:32;9.60;99.90
52899;DHT22;38763;53.096;6.062;2023-04-12T09:15:59;9.70;99.90
52899;DHT22;38763;53.096;6.062;2023-04-12T09:18:25;10.00;99.90
52899;DHT22;38763;53.096;6.062;2023-04-12T09:21:05;10.30;99.90
52899;DHT22;38763;53.096;6.062;2023-04-12T09:23:32;10.40;99.90
52899;DHT22;38763;53.096;6.062;2023-04-12T09:26:00;10.40;99.90
52899;DHT22;38763;53.096;6.062;2023-04-12T09:28:27;10.40;99.90
52899;DHT22;38763;53.096;6.062;2023-04-12T09:30:55;10.50;99.90
52899;DHT22;38763;53.096;6.062;2023-04-12T09:33:32;10.60;99.90
52899;DHT22;38763;53.096;6.062;2023-04-12T09:36:04;11.00;99.90
52899;DHT22;38763;53.096;6.062;2023-04-12T09:38:30;10.80;99.90
52899;DHT22;38763;53.096;6.062;2023-04-12T09:41:11;11.00;99.90
52899;DHT22;38763;53.096;6.062;2023-04-12T09:43:39;11.00;99.90
52899;DHT22;38763;53.096;6.062;2023-04-12T09:46:13;11.20;99.90
52899;DHT22;38763;53.096;6.062;2023-04-12T09:48:40;11.80;99.90
52899;DHT22;38763;53.096;6.062;2023-04-12T09:51:06;12.30;99.90
52899;DHT22;38763;53.096;6.062;2023-04-12T09:53:34;12.90;99.90
52899;DHT22;38763;53.096;6.062;2023-04-12T09:56:02;13.20;99.90
52899;DHT22;38763;53.096;6.062;2023-04-12T09:58:30;13.50;99.90
52899;DHT22;38763;53.096;6.062;2023-04-12T10:01:00;13.40;99.90
52899;DHT22;38763;53.096;6.062;2023-04-12T10:03:26;13.70;99.90
52899;DHT22;38763;53.096;6.062;2023-04-12T10:05:53;14.30;99.90
52899;DHT22;38763;53.096;6.062;2023-04-12T10:08:21;14.60;99.90
52899;DHT22;38763;53.096;6.062;2023-04-12T10:10:47;14.80;99.90
52899;DHT22;38763;53.096;6.062;2023-04-12T10:13:14;15.20;99.90
52899;DHT22;38763;53.096;6.062;2023-04-12T10:15:40;15.70;99.90
52899;DHT22;38763;53.096;6.062;2023-04-12T10:18:06;15.60;99.90
52899;DHT22;38763;53.096;6.062;2023-04-12T10:20:33;15.70;99.90
52899;DHT22;38763;53.096;6.062;2023-04-12T10:22:58;15.20;99.90
52899;DHT22;38763;53.096;6.062;2023-04-12T10:25:26;15.20;99.90
52899;DHT22;38763;53.096;6.062;2023-04-12T10:27:54;15.20;99.90
52899;DHT22;38763;53.096;6.062;2023-04-12T10:30:24;14.90;99.90
52899;DHT22;38763;53.096;6.062;2023-04-12T10:33:11;14.70;99.90
52899;DHT22;38763;53.096;6.062;2023-04-12T10:35:53;14.20;99.90
52899;DHT22;38763;53.096;6.062;2023-04-12T10:38:19;13.90;99.90
52899;DHT22;38763;53.096;6.062;2023-04-12T10:41:09;13.90;99.90
52899;DHT22;38763;53.096;6.062;2023-04-12T10:43:35;13.80;99.90
52899;DHT22;38763;53.096;6.062;2023-04-12T10:46:01;13.70;99.90
52899;DHT22;38763;53.096;6.062;2023-04-12T10:48:35;13.40;99.90
52899;DHT22;38763;53.096;6.062;2023-04-12T10:51:22;13.10;99.90
52899;DHT22;38763;53.096;6.062;2023-04-12T10:56:37;13.30;99.90
52899;DHT22;38763;53.096;6.062;2023-04-12T10:59:05;13.40;99.90
52899;DHT22;38763;53.096;6.062;2023-04-12T11:01:31;13.20;99.90
52899;DHT22;38763;53.096;6.062;2023-04-12T11:04:17;13.10;99.90
52899;DHT22;38763;53.096;6.062;2023-04-12T11:14:37;12.30;99.90
52899;DHT22;38763;53.096;6.062;2023-04-12T11:19:32;12.10;99.90
52899;DHT22;38763;53.096;6.062;2023-04-12T11:22:03;12.00;99.90
52899;DHT22;38763;53.096;6.062;2023-04-12T11:24:29;11.80;99.90
52899;DHT22;38763;53.096;6.062;2023-04-12T11:26:56;11.70;99.90
52899;DHT22;38763;53.096;6.062;2023-04-12T11:29:23;11.70;99.90
52899;DHT22;38763;53.096;6.062;2023-04-12T11:31:48;11.70;99.90
52899;DHT22;38763;53.096;6.062;2023-04-12T11:34:18;11.70;99.90
52899;DHT22;38763;53.096;6.062;2023-04-12T11:36:53;11.80;99.90
52899;DHT22;38763;53.096;6.062;2023-04-12T11:39:19;12.10;99.90
52899;DHT22;38763;53.096;6.062;2023-04-12T11:41:48;12.20;99.90
52899;DHT22;38763;53.096;6.062;2023-04-12T11:44:15;12.20;99.90
52899;DHT22;38763;53.096;6.062;2023-04-12T11:46:46;12.40;99.90
52899;DHT22;38763;53.096;6.062;2023-04-12T11:49:17;12.50;99.90
52899;DHT22;38763;53.096;6.062;2023-04-12T11:51:43;12.70;99.90
52899;DHT22;38763;53.096;6.062;2023-04-12T11:54:10;12.60;99.90
52899;DHT22;38763;53.096;6.062;2023-04-12T11:56:37;12.80;99.90
52899;DHT22;38763;53.096;6.062;2023-04-12T11:59:03;12.80;99.90
52899;DHT22;38763;53.096;6.062;2023-04-12T12:01:29;12.90;99.90
52899;DHT22;38763;53.096;6.062;2023-04-12T12:03:57;12.80;99.90
52899;DHT22;38763;53.096;6.062;2023-04-12T12:06:23;12.60;99.90
52899;DHT22;38763;53.096;6.062;2023-04-12T12:08:50;12.50;99.90
52899;DHT22;38763;53.096;6.062;2023-04-12T12:11:19;12.40;99.90
52899;DHT22;38763;53.096;6.062;2023-04-12T12:13:48;12.40;99.90
52899;DHT22;38763;53.096;6.062;2023-04-12T12:16:14;12.30;99.90
52899;DHT22;38763;53.096;6.062;2023-04-12T12:18:44;12.30;99.90
52899;DHT22;38763;53.096;6.062;2023-04-12T12:21:11;12.30;99.90
52899;DHT22;38763;53.096;6.062;2023-04-12T12:23:37;12.30;99.90
52899;DHT22;38763;53.096;6.062;2023-04-12T12:26:03;12.30;99.90
52899;DHT22;38763;53.096;6.062;2023-04-12T12:28:38;12.20;99.90
52899;DHT22;38763;53.096;6.062;2023-04-12T12:31:09;12.20;99.90
52899;DHT22;38763;53.096;6.062;2023-04-12T12:33:38;12.10;99.90
52899;DHT22;38763;53.096;6.062;2023-04-12T12:36:09;12.00;99.90
52899;DHT22;38763;53.096;6.062;2023-04-12T12:38:39;12.00;99.90
52899;DHT22;38763;53.096;6.062;2023-04-12T12:41:22;12.00;99.90
52899;DHT22;38763;53.096;6.062;2023-04-12T12:43:49;12.00;99.90
52899;DHT22;38763;53.096;6.062;2023-04-12T12:46:15;12.00;99.90
52899;DHT22;38763;53.096;6.062;2023-04-12T12:48:45;12.10;99.90
52899;DHT22;38763;53.096;6.062;2023-04-12T12:51:13;12.00;99.90
52899;DHT22;38763;53.096;6.062;2023-04-12T12:53:39;12.00;99.90
52899;DHT22;38763;53.096;6.062;2023-04-12T12:56:06;12.10;99.90
52899;DHT22;38763;53.096;6.062;2023-04-12T12:58:33;12.10;99.90
52899;DHT22;38763;53.096;6.062;2023-04-12T13:00:59;12.20;99.90
52899;DHT22;38763;53.096;6.062;2023-04-12T13:03:25;12.30;99.90
52899;DHT22;38763;53.096;6.062;2023-04-12T13:05:51;12.40;99.90
52899;DHT22;38763;53.096;6.062;2023-04-12T13:08:17;12.50;99.90
52899;DHT22;38763;53.096;6.062;2023-04-12T13:10:42;12.60;99.90
52899;DHT22;38763;53.096;6.062;2023-04-12T13:13:08;12.50;99.90
52899;DHT22;38763;53.096;6.062;2023-04-12T13:15:34;12.50;99.90
52899;DHT22;38763;53.096;6.062;2023-04-12T13:18:00;12.60;99.90
52899;DHT22;38763;53.096;6.062;2023-04-12T13:20:26;12.80;99.90
52899;DHT22;38763;53.096;6.062;2023-04-12T13:22:53;12.60;99.90
52899;DHT22;38763;53.096;6.062;2023-04-12T13:25:19;12.60;99.90
52899;DHT22;38763;53.096;6.062;2023-04-12T13:27:50;12.60;99.90
52899;DHT22;38763;53.096;6.062;2023-04-12T13:30:19;12.70;99.90
52899;DHT22;38763;53.096;6.062;2023-04-12T13:32:45;12.80;99.90
52899;DHT22;38763;53.096;6.062;2023-04-12T13:35:11;12.80;99.90
52899;DHT22;38763;53.096;6.062;2023-04-12T13:37:37;12.80;99.90
52899;DHT22;38763;53.096;6.062;2023-04-12T13:40:03;12.80;99.90
52899;DHT22;38763;53.096;6.062;2023-04-12T13:42:29;12.90;99.90
52899;DHT22;38763;53.096;6.062;2023-04-12T13:51:57;12.60;99.90
52899;DHT22;38763;53.096;6.062;2023-04-12T13:54:23;12.70;99.90
52899;DHT22;38763;53.096;6.062;2023-04-12T13:56:48;12.80;99.90
52899;DHT22;38763;53.096;6.062;2023-04-12T13:59:14;12.80;99.90
52899;DHT22;38763;53.096;6.062;2023-04-12T14:01:40;12.80;99.90
52899;DHT22;38763;53.096;6.062;2023-04-12T14:04:06;12.80;99.90
52899;DHT22;38763;53.096;6.062;2023-04-12T14:06:32;12.70;99.90
52899;DHT22;38763;53.096;6.062;2023-04-12T14:08:57;12.80;99.90
52899;DHT22;38763;53.096;6.062;2023-04-12T14:11:23;12.70;99.90
52899;DHT22;38763;53.096;6.062;2023-04-12T14:13:51;12.60;99.90
52899;DHT22;38763;53.096;6.062;2023-04-12T14:16:17;12.50;99.90
52899;DHT22;38763;53.096;6.062;2023-04-12T14:18:43;12.40;99.90
52899;DHT22;38763;53.096;6.062;2023-04-12T14:21:09;12.60;99.90
52899;DHT22;38763;53.096;6.062;2023-04-12T14:23:35;12.70;99.90
52899;DHT22;38763;53.096;6.062;2023-04-12T14:26:00;12.80;99.90
52899;DHT22;38763;53.096;6.062;2023-04-12T14:28:26;12.80;99.90
52899;DHT22;38763;53.096;6.062;2023-04-12T14:30:56;12.80;99.90
52899;DHT22;38763;53.096;6.062;2023-04-12T14:33:22;12.70;99.90
52899;DHT22;38763;53.096;6.062;2023-04-12T14:35:49;12.50;99.90
52899;DHT22;38763;53.096;6.062;2023-04-12T14:38:15;12.40;99.90
52899;DHT22;38763;53.096;6.062;2023-04-12T14:40:40;12.20;99.90
52899;DHT22;38763;53.096;6.062;2023-04-12T14:43:06;12.10;99.90
52899;DHT22;38763;53.096;6.062;2023-04-12T14:45:32;12.00;99.90
52899;DHT22;38763;53.096;6.062;2023-04-12T14:47:57;11.90;99.90
52899;DHT22;38763;53.096;6.062;2023-04-12T14:50:23;11.90;99.90
52899;DHT22;38763;53.096;6.062;2023-04-12T14:52:49;11.80;99.90
52899;DHT22;38763;53.096;6.062;2023-04-12T14:55:15;11.80;99.90
52899;DHT22;38763;53.096;6.062;2023-04-12T14:57:43;11.80;99.90
52899;DHT22;38763;53.096;6.062;2023-04-12T15:00:09;11.80;99.90
52899;DHT22;38763;53.096;6.062;2023-04-12T15:02:39;11.70;99.90
52899;DHT22;38763;53.096;6.062;2023-04-12T15:05:06;11.70;99.90
52899;DHT22;38763;53.096;6.062;2023-04-12T15:07:33;11.80;99.90
52899;DHT22;38763;53.096;6.062;2023-04-12T15:09:59;12.00;99.90
52899;DHT22;38763;53.096;6.062;2023-04-12T15:12:25;12.20;99.90
52899;DHT22;38763;53.096;6.062;2023-04-12T15:14:52;12.10;99.90
52899;DHT22;38763;53.096;6.062;2023-04-12T15:17:19;12.10;99.90
52899;DHT22;38763;53.096;6.062;2023-04-12T15:19:45;12.10;99.90
52899;DHT22;38763;53.096;6.062;2023-04-12T15:22:11;12.00;99.90
52899;DHT22;38763;53.096;6.062;2023-04-12T15:24:37;11.80;99.90
52899;DHT22;38763;53.096;6.062;2023-04-12T15:27:04;11.80;99.90
52899;DHT22;38763;53.096;6.062;2023-04-12T15:29:29;11.90;99.90
52899;DHT22;38763;53.096;6.062;2023-04-12T15:31:56;11.90;99.90
52899;DHT22;38763;53.096;6.062;2023-04-12T15:34:21;11.90;99.90
52899;DHT22;38763;53.096;6.062;2023-04-12T15:36:50;11.80;99.90
52899;DHT22;38763;53.096;6.062;2023-04-12T15:39:17;11.80;99.90
52899;DHT22;38763;53.096;6.062;2023-04-12T15:41:43;11.90;99.90
52899;DHT22;38763;53.096;6.062;2023-04-12T15:44:09;11.90;99.90
52899;DHT22;38763;53.096;6.062;2023-04-12T15:46:40;11.80;99.90
52899;DHT22;38763;53.096;6.062;2023-04-12T15:49:06;11.80;99.90
52899;DHT22;38763;53.096;6.062;2023-04-12T15:51:32;11.90;99.90
52899;DHT22;38763;53.096;6.062;2023-04-12T15:54:00;11.80;99.90
52899;DHT22;38763;53.096;6.062;2023-04-12T15:56:26;11.70;99.90
52899;DHT22;38763;53.096;6.062;2023-04-12T15:58:53;11.70;99.90
52899;DHT22;38763;53.096;6.062;2023-04-12T16:01:21;11.80;99.90
52899;DHT22;38763;53.096;6.062;2023-04-12T16:03:47;12.00;99.90
52899;DHT22;38763;53.096;6.062;2023-04-12T16:06:15;11.90;99.90
52899;DHT22;38763;53.096;6.062;2023-04-12T16:08:52;12.10;99.90
52899;DHT22;38763;53.096;6.062;2023-04-12T16:11:21;12.10;99.90
52899;DHT22;38763;53.096;6.062;2023-04-12T16:13:48;12.10;99.90
52899;DHT22;38763;53.096;6.062;2023-04-12T16:16:16;12.10;99.90
52899;DHT22;38763;53.096;6.062;2023-04-12T16:18:43;12.10;99.90
52899;DHT22;38763;53.096;6.062;2023-04-12T16:21:10;12.10;99.90